Time;durP1;ratioP1;P1;durP2;ratioP2;P2;SDS_P1;SDS_P2;PMS_P1;PMS_P2;Temp;Humidity;BMP_temperature;BMP_pressure;BME280_temperature;BME280_humidity;BME280_pressure;Samples;Min_cycle;Max_cycle;Signal;HPM_P1;HPM_P2
2023/01/30 03:15:46;;;;;;;53.22;23.83;;;;;;;5.07;100.00;101607.25;5640528;23;20033;-96
2023/01/30 04:26:26;;;;;;;59.00;22.40;;;;;;;5.10;100.00;101594.50;3354779;23;20308;-93
2023/01/30 04:29:04;;;;;;;59.28;22.83;;;;;;;5.15;100.00;101580.16;5129214;23;20117;-96
2023/01/30 04:31:38;;;;;;;56.33;22.00;;;;;;;5.16;100.00;101584.53;5759179;23;20027;-96
2023/01/30 04:34:24;;;;;;;54.40;22.73;;;;;;;5.24;100.00;101583.25;4962843;28;20042;-96
2023/01/30 05:18:52;;;;;;;42.10;16.17;;;;;;;5.78;100.00;101604.41;4958289;28;20805;-96
2023/01/30 05:21:24;;;;;;;36.75;14.05;;;;;;;5.81;100.00;101596.81;4959942;28;20034;-96
2023/01/30 05:23:53;;;;;;;33.50;13.52;;;;;;;5.85;100.00;101601.34;4944347;28;20019;-96
2023/01/30 05:26:18;;;;;;;35.10;13.05;;;;;;;5.86;100.00;101591.88;4940624;28;20023;-96
2023/01/30 05:28:50;;;;;;;29.48;13.02;;;;;;;5.92;100.00;101584.44;4941458;28;20496;-96
2023/01/30 05:31:16;;;;;;;36.38;13.05;;;;;;;5.94;100.00;101582.84;4944846;28;20430;-95
2023/01/30 05:33:41;;;;;;;32.05;12.52;;;;;;;5.96;100.00;101580.34;4946615;28;21033;-96
2023/01/30 05:36:07;;;;;;;31.33;10.80;;;;;;;5.99;100.00;101584.00;4945307;28;20114;-96
2023/01/30 05:38:38;;;;;;;30.52;11.02;;;;;;;6.00;100.00;101585.78;4956634;28;20046;-96
2023/01/30 05:41:05;;;;;;;24.98;10.00;;;;;;;6.03;100.00;101595.44;4961421;28;20065;-96
2023/01/30 05:43:32;;;;;;;29.00;11.32;;;;;;;6.04;100.00;101586.84;4949711;28;20014;-96
2023/01/30 05:46:00;;;;;;;27.40;10.13;;;;;;;6.05;100.00;101583.44;4944343;28;20027;-96
2023/01/30 05:48:27;;;;;;;32.30;10.15;;;;;;;6.04;100.00;101582.56;4954653;28;20127;-96
2023/01/30 05:50:54;;;;;;;25.65;9.52;;;;;;;6.08;100.00;101591.38;4939812;28;20035;-96
2023/01/30 05:53:21;;;;;;;27.10;9.73;;;;;;;6.09;100.00;101583.69;4954987;28;20126;-96
2023/01/30 05:55:57;;;;;;;25.70;8.90;;;;;;;6.11;100.00;101588.06;4936422;28;20708;-96
2023/01/30 05:58:23;;;;;;;27.60;8.57;;;;;;;6.12;100.00;101592.44;4958310;28;20019;-96
2023/01/30 06:00:49;;;;;;;30.67;8.93;;;;;;;6.14;100.00;101590.81;4953562;28;20110;-96
2023/01/30 06:03:14;;;;;;;25.45;8.88;;;;;;;6.14;100.00;101614.09;4956478;28;20374;-96
2023/01/30 06:05:40;;;;;;;25.23;8.20;;;;;;;6.14;100.00;101616.69;4943752;28;20028;-96
2023/01/30 06:08:08;;;;;;;26.33;7.95;;;;;;;6.17;100.00;101598.72;4944174;28;20707;-96
2023/01/30 06:10:34;;;;;;;25.75;8.02;;;;;;;6.19;100.00;101608.38;4938721;29;20055;-96
2023/01/30 06:13:00;;;;;;;26.08;8.23;;;;;;;6.21;100.00;101600.69;4933678;29;20027;-96
2023/01/30 06:15:25;;;;;;;25.33;7.88;;;;;;;6.21;100.00;101603.28;4933978;28;20070;-96
2023/01/30 06:17:50;;;;;;;23.27;8.15;;;;;;;6.23;100.00;101614.63;4949721;28;20046;-96
2023/01/30 06:20:16;;;;;;;23.92;8.45;;;;;;;6.21;100.00;101611.94;4972858;28;20101;-96
2023/01/30 06:22:44;;;;;;;23.75;7.50;;;;;;;6.20;100.00;101617.00;4959219;28;20069;-96
2023/01/30 06:25:12;;;;;;;22.13;7.32;;;;;;;6.16;100.00;101634.09;4978619;28;20122;-96
2023/01/30 06:27:37;;;;;;;22.98;7.10;;;;;;;6.17;100.00;101619.44;4976588;28;20460;-96
2023/01/30 06:30:03;;;;;;;22.10;7.20;;;;;;;6.17;100.00;101640.13;4976827;28;20066;-96
2023/01/30 06:32:28;;;;;;;24.27;7.35;;;;;;;6.15;100.00;101646.94;4978646;28;20118;-96
2023/01/30 06:34:54;;;;;;;20.60;6.55;;;;;;;6.13;100.00;101653.75;4957477;28;20061;-96
2023/01/30 06:50:17;;;;;;;18.90;5.80;;;;;;;5.82;100.00;101664.91;5737973;23;20043;-96
2023/01/30 09:55:34;;;;;;;19.63;3.67;;;;;;;6.34;84.18;101794.66;3972835;23;20314;-93
2023/01/30 10:04:00;;;;;;;17.63;3.17;;;;;;;6.47;85.51;101804.00;6067165;22;20052;-96
2023/01/30 10:14:35;;;;;;;19.13;2.97;;;;;;;6.64;84.13;101810.13;5496896;23;20102;-96
2023/01/30 10:17:29;;;;;;;16.65;3.00;;;;;;;6.66;85.81;101810.19;5028223;28;20077;-95
2023/01/30 10:20:13;;;;;;;20.95;3.70;;;;;;;6.67;85.34;101824.94;5030236;28;20029;-96
2023/01/30 10:23:06;;;;;;;19.73;3.00;;;;;;;6.63;85.05;101818.69;5025976;28;20124;-96
2023/01/30 10:25:37;;;;;;;12.98;2.42;;;;;;;6.60;84.97;101823.69;5031602;28;20033;-96
2023/01/30 11:05:57;;;;;;;14.02;2.53;;;;;;;6.42;83.63;101860.69;5101616;23;20315;-97
2023/01/30 11:16:57;;;;;;;14.30;3.00;;;;;;;6.40;84.23;101861.41;5146510;23;20054;-96
2023/01/30 11:24:42;;;;;;;18.17;2.90;;;;;;;6.49;83.29;101855.84;5667283;23;20329;-94
2023/01/30 11:27:34;;;;;;;10.65;2.40;;;;;;;6.51;82.40;101851.69;5034505;28;20017;-96
2023/01/30 11:30:12;;;;;;;18.08;2.83;;;;;;;6.59;83.00;101846.13;5027062;28;20591;-95
2023/01/30 11:32:40;;;;;;;16.38;2.90;;;;;;;6.62;81.41;101840.22;5037435;28;20040;-96
2023/01/30 11:35:11;;;;;;;17.27;2.97;;;;;;;6.68;80.99;101856.09;5038817;28;20020;-96
2023/01/30 11:37:39;;;;;;;15.98;2.70;;;;;;;6.66;82.87;101857.69;5033694;28;20033;-95
2023/01/30 11:40:27;;;;;;;17.23;3.17;;;;;;;6.69;80.59;101852.72;5027496;28;20033;-95
2023/01/30 11:43:23;;;;;;;17.40;2.65;;;;;;;6.69;81.36;101849.22;5031884;28;20021;-96
2023/01/30 12:45:12;;;;;;;14.93;2.78;;;;;;;7.17;79.14;101870.88;4782980;22;20053;-96
2023/01/30 12:50:24;;;;;;;18.25;2.80;;;;;;;7.15;79.15;101875.06;5024931;28;20049;-96
2023/01/30 12:56:03;;;;;;;19.30;2.90;;;;;;;6.99;78.91;101890.59;5363519;23;20070;-95
2023/01/30 13:17:27;;;;;;;17.42;2.70;;;;;;;6.89;78.08;101915.09;5094350;23;20057;-94
2023/01/30 13:20:00;;;;;;;22.73;3.20;;;;;;;6.88;79.46;101900.34;4973272;28;20049;-94
2023/01/30 13:27:40;;;;;;;15.23;2.58;;;;;;;6.85;80.93;101911.44;4139495;23;20029;-96
2023/01/30 13:30:09;;;;;;;22.95;3.20;;;;;;;6.85;79.39;101918.31;5050514;28;20033;-96
2023/01/30 13:32:42;;;;;;;14.98;3.08;;;;;;;6.86;80.03;101922.69;5046882;28;20029;-96
2023/01/30 13:35:26;;;;;;;19.30;2.88;;;;;;;6.88;80.24;101914.19;5049381;28;20064;-96
2023/01/30 13:37:59;;;;;;;19.10;3.53;;;;;;;6.93;79.52;101930.00;5049311;28;20041;-96
2023/01/30 13:40:50;;;;;;;14.73;2.65;;;;;;;6.93;80.25;101930.00;5042684;28;20471;-96
2023/01/30 13:43:24;;;;;;;14.90;2.92;;;;;;;6.94;78.93;101922.31;5051920;28;20025;-96
2023/01/30 13:45:57;;;;;;;12.07;2.75;;;;;;;6.95;78.66;101920.59;5048304;28;20032;-95
2023/01/30 13:53:41;;;;;;;17.52;2.90;;;;;;;6.97;77.20;101948.38;5427469;23;20051;-96
2023/01/30 14:04:43;;;;;;;16.27;2.95;;;;;;;6.93;78.70;101959.38;5610482;23;20065;-96
2023/01/30 14:12:26;;;;;;;12.55;2.30;;;;;;;6.89;78.83;101972.97;5706702;22;20070;-96
2023/01/30 14:15:13;;;;;;;15.38;3.30;;;;;;;6.90;78.07;101968.69;5076997;28;20055;-96
2023/01/30 14:18:00;;;;;;;20.63;2.90;;;;;;;6.86;78.64;101967.63;5077286;28;20123;-96
2023/01/30 14:20:29;;;;;;;17.02;2.85;;;;;;;6.85;78.03;101970.13;5078229;22;20040;-96
2023/01/30 14:25:46;;;;;;;13.18;3.10;;;;;;;6.82;79.33;101991.56;5541640;23;20057;-96
2023/01/30 14:28:12;;;;;;;18.15;3.35;;;;;;;6.83;78.72;102003.72;5049425;28;20021;-96
2023/01/30 14:30:57;;;;;;;16.65;2.55;;;;;;;6.84;79.58;102004.63;5048134;28;20028;-96
2023/01/30 14:33:24;;;;;;;18.70;3.00;;;;;;;6.84;78.73;102014.97;5046806;28;20029;-96
2023/01/30 15:10:04;;;;;;;17.73;2.67;;;;;;;6.65;80.80;102086.44;5058013;23;20073;-96
2023/01/30 15:53:57;;;;;;;16.13;2.88;;;;;;;6.43;80.87;102152.44;5053715;28;20034;-96
2023/01/30 15:59:23;;;;;;;14.32;2.55;;;;;;;6.37;80.53;102152.09;5393117;22;20069;-95
2023/01/30 16:47:35;;;;;;;12.00;2.90;;;;;;;5.92;81.47;102232.03;5067358;28;20045;-96
2023/01/30 16:53:28;;;;;;;;;;;;;;;;;;;;;
2023/01/30 18:09:12;;;;;;;11.68;2.50;;;;;;;5.68;88.61;102355.44;846078;22;20333;-94
2023/01/30 18:11:37;;;;;;;19.20;3.15;;;;;;;5.65;89.05;102359.50;5019312;28;20129;-96
2023/01/30 18:17:12;;;;;;;17.70;3.13;;;;;;;5.59;88.93;102360.00;5063202;28;20522;-96
2023/01/30 18:19:40;;;;;;;;;;;;;;;5.63;88.09;102372.34;5046097;28;20076;-96
2023/01/30 18:22:29;;;;;;;15.27;3.25;;;;;;;5.47;88.04;102366.91;5061001;28;19921;-96
2023/01/30 18:24:57;;;;;;;21.40;3.45;;;;;;;5.36;88.81;102369.66;5083680;28;20025;-96
2023/01/30 18:27:26;;;;;;;18.20;3.00;;;;;;;5.26;89.23;102361.13;5183152;22;20152;-96
2023/01/30 18:29:59;;;;;;;16.52;3.20;;;;;;;5.22;89.09;102368.69;5028300;28;20032;-96
2023/01/30 18:32:28;;;;;;;16.05;3.55;;;;;;;5.17;88.96;102367.47;5024745;28;20033;-96
2023/01/30 18:35:01;;;;;;;19.47;3.50;;;;;;;5.14;89.51;102375.03;5025213;28;20037;-96
2023/01/30 18:37:41;;;;;;;;;;;;;;;;;;;;;
2023/01/30 18:40:15;;;;;;;19.40;3.90;;;;;;;5.08;90.16;102376.25;5037056;28;20093;-96
2023/01/30 18:42:53;;;;;;;19.73;3.70;;;;;;;5.03;90.44;102383.69;5131274;23;20969;-95
2023/01/30 18:45:22;;;;;;;16.70;3.25;;;;;;;4.99;90.90;102386.84;5031408;28;20041;-96
2023/01/30 18:48:15;;;;;;;20.95;3.72;;;;;;;4.97;90.51;102385.84;5032428;28;20029;-95
2023/01/30 18:51:11;;;;;;;;;;;;;;;;;;;;;
2023/01/30 18:53:42;;;;;;;21.70;3.80;;;;;;;4.97;90.66;102394.47;5034425;28;20089;-96
2023/01/30 18:56:25;;;;;;;22.33;4.07;;;;;;;4.97;90.58;102397.06;5030241;28;20029;-95
2023/01/30 18:59:09;;;;;;;20.52;3.63;;;;;;;4.97;90.38;102397.06;5030483;28;20104;-95
2023/01/30 19:01:45;;;;;;;21.15;3.35;;;;;;;4.97;90.38;102397.06;5030283;28;20029;-95
2023/01/30 19:04:13;;;;;;;15.02;3.10;;;;;;;4.96;89.47;102402.13;5025254;28;20044;-96
2023/01/30 19:07:23;;;;;;;;;;;;;;;;;;;;;
2023/01/30 19:13:48;;;;;;;21.30;3.60;;;;;;;4.86;89.51;102401.44;5051809;28;20034;-96
2023/01/30 20:11:58;;;;;;;15.57;2.90;;;;;;;4.54;94.56;102430.09;1321103;22;20252;-96
2023/01/30 20:14:44;;;;;;;19.35;3.28;;;;;;;4.52;94.27;102423.94;4984358;28;20075;-96
2023/01/30 20:17:22;;;;;;;17.30;3.38;;;;;;;4.48;94.50;102427.97;4989978;28;20046;-96
2023/01/30 20:22:22;;;;;;;15.77;3.00;;;;;;;4.38;93.52;102428.06;5366077;23;20053;-96
2023/01/30 20:24:51;;;;;;;15.77;3.08;;;;;;;4.33;93.20;102434.56;5014696;28;20032;-96
2023/01/30 20:27:21;;;;;;;18.60;3.28;;;;;;;4.26;93.37;102430.63;4995417;28;20065;-96
2023/01/30 20:29:49;;;;;;;14.32;3.25;;;;;;;4.20;93.27;102435.34;4992690;28;20505;-96
2023/01/30 20:32:35;;;;;;;;;;;;;;;;;;;;;
2023/01/30 20:37:41;;;;;;;16.17;3.25;;;;;;;4.13;93.52;102449.44;5594573;23;20422;-96
2023/01/30 20:40:30;;;;;;;18.85;3.40;;;;;;;4.10;93.13;102448.31;5040797;28;20048;-96
2023/01/30 20:42:56;;;;;;;14.55;3.15;;;;;;;4.08;93.35;102449.88;5043035;28;20029;-96
2023/01/30 20:45:44;;;;;;;16.20;3.17;;;;;;;4.07;92.97;102454.16;5030940;28;20104;-96
2023/01/30 20:48:10;;;;;;;18.70;3.72;;;;;;;4.09;92.71;102457.72;5034923;28;20032;-96
2023/01/30 20:50:42;;;;;;;18.48;4.00;;;;;;;4.09;92.22;102460.31;5046035;28;20093;-96
2023/01/30 20:53:17;;;;;;;16.88;3.38;;;;;;;4.07;92.23;102453.22;5046989;28;20474;-96
2023/01/30 20:55:42;;;;;;;15.82;4.22;;;;;;;4.05;91.71;102450.53;5049147;28;20037;-96
2023/01/30 20:58:09;;;;;;;21.23;3.80;;;;;;;4.07;91.68;102453.22;5040913;28;20959;-96
2023/01/30 21:03:09;;;;;;;16.17;3.05;;;;;;;4.06;91.06;102461.78;5055527;22;20502;-96
2023/01/30 21:05:45;;;;;;;;;;;;;;;;;;;;;
2023/01/30 21:08:10;;;;;;;30.15;5.82;;;;;;;4.04;91.04;102458.16;5044374;28;20017;-96
2023/01/30 21:10:45;;;;;;;16.90;3.80;;;;;;;4.02;90.73;102465.78;5034150;28;20108;-96
2023/01/30 21:13:12;;;;;;;20.63;3.90;;;;;;;3.99;90.43;102471.59;5029414;28;20034;-96
2023/01/30 21:16:00;;;;;;;17.35;4.25;;;;;;;3.97;90.88;102475.75;5039636;28;20045;-96
2023/01/30 21:18:29;;;;;;;16.08;4.07;;;;;;;3.93;90.40;102478.88;5045724;28;20033;-96
2023/01/30 21:21:05;;;;;;;;;;;;;;;;;;;;;
2023/01/30 21:23:50;;;;;;;58.33;25.55;;;;;;;3.92;90.31;102489.06;5066636;28;20045;-96
2023/01/30 21:26:32;;;;;;;44.13;20.42;;;;;;;3.87;90.33;102495.53;5051922;28;20022;-96
2023/01/30 21:31:34;;;;;;;21.27;4.53;;;;;;;3.65;91.24;102492.22;5584612;22;20593;-96
2023/01/30 21:34:01;;;;;;;16.42;3.78;;;;;;;3.58;91.51;102489.94;5038946;28;20048;-96
2023/01/30 21:36:27;;;;;;;14.48;4.30;;;;;;;3.54;91.43;102494.72;5026821;28;20021;-96
2023/01/30 21:44:31;;;;;;;16.83;4.45;;;;;;;3.40;92.02;102506.50;5649539;22;20060;-96
2023/01/30 21:47:07;;;;;;;19.42;4.18;;;;;;;3.33;92.46;102501.66;5048218;28;20064;-96
2023/01/30 22:07:52;;;;;;;15.77;4.88;;;;;;;3.09;93.44;102493.75;5336418;23;20053;-96
2023/01/30 22:10:33;;;;;;;;;;;;;;;;;;;;;
2023/01/30 22:13:15;;;;;;;18.83;6.70;;;;;;;3.01;93.29;102495.69;5048724;28;20061;-96
2023/01/30 22:20:54;;;;;;;17.92;4.65;;;;;;;2.88;94.16;102496.41;5598514;23;20046;-96
2023/01/30 22:25:55;;;;;;;16.15;5.10;;;;;;;2.75;94.49;102488.44;5365061;23;20078;-96
2023/01/30 22:28:20;;;;;;;16.52;4.65;;;;;;;2.74;94.68;102491.81;5016272;28;20555;-96
2023/01/30 22:30:48;;;;;;;16.05;5.38;;;;;;;2.74;94.85;102499.53;5012320;28;20497;-96
2023/01/30 22:33:13;;;;;;;17.73;4.60;;;;;;;2.69;94.58;102495.66;5006362;28;20017;-96
2023/01/30 22:35:39;;;;;;;21.70;5.05;;;;;;;2.67;95.14;102494.66;5010645;28;20033;-96
2023/01/30 22:38:28;;;;;;;17.73;3.92;;;;;;;2.69;95.38;102500.81;5014269;28;20029;-96
2023/01/30 22:41:14;;;;;;;20.65;4.53;;;;;;;2.69;94.69;102501.69;4999509;28;20064;-96
2023/01/30 22:43:43;;;;;;;14.80;4.50;;;;;;;2.71;94.91;102499.25;5014191;28;20025;-96
2023/01/30 22:46:11;;;;;;;20.00;5.20;;;;;;;2.70;94.83;102500.94;5005209;28;20021;-96
2023/01/30 22:48:39;;;;;;;20.15;5.47;;;;;;;2.66;94.68;102493.72;5027754;28;20132;-96
2023/01/30 22:51:15;;;;;;;19.17;4.75;;;;;;;2.66;95.22;102496.31;5005217;28;20017;-96
2023/01/30 22:53:45;;;;;;;14.65;4.03;;;;;;;2.61;94.55;102488.22;5011703;28;20021;-96
2023/01/30 22:56:14;;;;;;;17.40;4.72;;;;;;;2.61;95.00;102493.34;5005811;28;20026;-96
2023/01/30 22:58:42;;;;;;;20.02;5.10;;;;;;;2.60;94.89;102485.50;5005275;28;20783;-96
2023/01/30 23:01:26;;;;;;;32.17;17.30;;;;;;;2.60;95.24;102483.81;5005081;28;20029;-96
2023/01/30 23:03:57;;;;;;;17.30;4.90;;;;;;;2.57;94.64;102483.56;5009345;28;20061;-96
2023/01/30 23:06:25;;;;;;;13.10;4.47;;;;;;;2.53;94.51;102488.34;5005010;28;20033;-96
2023/01/30 23:08:53;;;;;;;27.30;7.73;;;;;;;2.52;94.53;102486.53;5003591;28;20033;-96
2023/01/30 23:11:38;;;;;;;17.63;4.55;;;;;;;2.49;94.70;102481.16;5004130;28;20130;-96
2023/01/30 23:14:10;;;;;;;14.93;4.40;;;;;;;2.47;95.07;102472.41;5007412;28;20029;-96
2023/01/30 23:16:38;;;;;;;15.05;3.92;;;;;;;2.43;95.29;102473.81;5007819;28;20120;-96
2023/01/30 23:19:05;;;;;;;20.70;4.05;;;;;;;2.41;95.41;102483.09;5004319;28;20026;-96
2023/01/30 23:21:38;;;;;;;16.52;4.18;;;;;;;2.40;95.41;102476.13;5003840;28;20034;-96
2023/01/30 23:24:15;;;;;;;12.85;3.75;;;;;;;2.37;95.83;102473.31;5007297;28;20065;-96
2023/01/30 23:26:43;;;;;;;16.67;3.95;;;;;;;2.35;95.19;102462.00;5003572;28;20073;-96
2023/01/30 23:29:13;;;;;;;16.05;4.25;;;;;;;2.34;95.63;102460.22;5009231;28;20021;-96
2023/01/30 23:31:40;;;;;;;21.05;4.10;;;;;;;2.31;95.74;102462.53;5007743;28;20029;-96
2023/01/30 23:34:10;;;;;;;15.93;4.03;;;;;;;2.30;95.80;102463.28;5003654;28;20088;-96
2023/01/30 23:36:35;;;;;;;;;;;;;;;2.36;95.27;102453.50;5005112;28;20068;-96
2023/01/30 23:39:00;;;;;;;15.38;3.83;;;;;;;2.32;95.28;102448.88;5004217;28;20339;-96
2023/01/30 23:41:28;;;;;;;14.55;3.78;;;;;;;2.30;95.90;102450.44;5006223;28;20032;-96
2023/01/30 23:43:58;;;;;;;19.00;4.00;;;;;;;2.29;96.01;102451.19;5004567;28;20025;-96
